Osmond, Nebraska
Current Conditions -  °F | °C
As of 10:56 AM on Sunday 21 Dec 2014 (Local Time) from KOFK Reporting Station
Haze Haze  
Wind Chill: 28°   Ceiling: 600
Heat Index: 37°   Visibility: 5mi
Dew Point: 35°   Wind: 16mph
Humidity: 93%   Direction: 170°S
Pressure: 29.73"   Gusts: 22mph
Location:  42.36°N, 97.6°W
Report Text: KOFK 211656Z AUTO 17014G19KT 5SM BR OVC006 03/02 A2973 RMK AO2 SLP079 T00280017
Loading
Personal Weather Stations






























Interactive Weather Map New forecast layout! Learn more

10-Day Weather Forecast

Advertisements
Track Severe Weather on mobile